Decoded Metar for KINL (INTERNATIONAL FALLS in MN, USA) (IATA:INL) | Meteo·Mobile Aviation Weather
aviador You're here:

KINL Decoded Metar

INTERNATIONAL FALLS in MN, USA
Report Time2019-10-18 13:55:00
UTC Time2019-10-18 14:45:55
Flight Rules vfr VFR
Wind140° at 15 Gusting to 23 kt
W.Decomp.*RWY 13: 14.9 kt HW 1.8 kt RCW
RWY 22: 1.8 kt HW 14.9 kt LCW
Visibility9999 m
Phenomena:N/A
Clouds:N/A
Expected CloudBase > 1,600 ft AGL from Temp-Dew spread
CeilingNone
Temp07°C (ISA -6)
Dew Point03°C (76% RH)
AAT0.1°C
QNH1004 hPa
Density Alt919 ft
Elevation1,181 ft
Report Wrong Elevation
Raw Report
KINL 181355Z AUTO 14015G23KT 10SM CLR 07/03 A2964 RMK AO2 SLP048
T00670028=

Extra information for KINL:More info

Metar Taf Metar & Taf Last 4 Metars F.Rules Stats Wind Profile Meteogram Temp Stats Airport Information Weather charts Add Link Nearby VenuesMetar ALERT Operation Metar Decoded Social comments

AIRNAV info for KINL